Koksijde, Belgium
Current Conditions -  °F | °C
As of 1:25 PM on Monday 20 Oct 2014 (Local Time) from EBFN Reporting Station
Few Clouds Few Clouds  
Wind Chill: 63°   Ceiling: Unl
Heat Index: 63°   Visibility: 6mi
Dew Point: 52°   Wind: 14mph
Humidity: 68%   Direction: 260°W
Pressure: 30.06"   Gusts: NA
Location:  51.11°N, 2.68°E
Report Text: EBFN 201125Z 26012KT 9999 FEW024 17/11 Q1018 BLU BLU TEMPO WHT
Loading
Personal Weather Stations






























Interactive Weather Map
Tropical Storm Tracking
New forecast layout! Learn more

10-Day Weather Forecast

Advertisements
Track Severe Weather on mobile